sensor_id;sensor_type;location;lat;lon;timestamp;P1;durP1;ratioP1;P2;durP2;ratioP2
69989;SDS011;57331;52.054;5.294;2022-11-20T00:01:31;16.35;;;7.32;;
69989;SDS011;57331;52.054;5.294;2022-11-20T00:03:58;20.60;;;8.03;;
69989;SDS011;57331;52.054;5.294;2022-11-20T00:06:26;17.13;;;7.47;;
69989;SDS011;57331;52.054;5.294;2022-11-20T00:08:55;17.15;;;7.18;;
69989;SDS011;57331;52.054;5.294;2022-11-20T00:11:23;19.30;;;7.60;;
69989;SDS011;57331;52.054;5.294;2022-11-20T00:13:51;17.83;;;7.75;;
69989;SDS011;57331;52.054;5.294;2022-11-20T00:16:21;20.42;;;8.05;;
69989;SDS011;57331;52.054;5.294;2022-11-20T00:18:49;18.35;;;8.05;;
69989;SDS011;57331;52.054;5.294;2022-11-20T00:21:18;20.20;;;8.25;;
69989;SDS011;57331;52.054;5.294;2022-11-20T00:23:49;17.35;;;7.88;;
69989;SDS011;57331;52.054;5.294;2022-11-20T00:26:21;17.63;;;8.13;;
69989;SDS011;57331;52.054;5.294;2022-11-20T00:28:50;18.02;;;8.05;;
69989;SDS011;57331;52.054;5.294;2022-11-20T00:31:19;20.17;;;7.80;;
69989;SDS011;57331;52.054;5.294;2022-11-20T00:33:46;18.08;;;7.78;;
69989;SDS011;57331;52.054;5.294;2022-11-20T00:36:14;17.60;;;7.47;;
69989;SDS011;57331;52.054;5.294;2022-11-20T00:38:42;18.42;;;7.78;;
69989;SDS011;57331;52.054;5.294;2022-11-20T00:41:10;19.63;;;7.72;;
69989;SDS011;57331;52.054;5.294;2022-11-20T00:43:39;18.70;;;8.00;;
69989;SDS011;57331;52.054;5.294;2022-11-20T00:46:07;19.48;;;8.15;;
69989;SDS011;57331;52.054;5.294;2022-11-20T00:48:35;19.45;;;7.90;;
69989;SDS011;57331;52.054;5.294;2022-11-20T00:51:02;18.00;;;7.25;;
69989;SDS011;57331;52.054;5.294;2022-11-20T00:53:29;18.00;;;6.57;;
69989;SDS011;57331;52.054;5.294;2022-11-20T00:55:58;15.75;;;6.53;;
69989;SDS011;57331;52.054;5.294;2022-11-20T00:58:28;19.08;;;7.05;;
69989;SDS011;57331;52.054;5.294;2022-11-20T01:01:00;19.77;;;7.72;;
69989;SDS011;57331;52.054;5.294;2022-11-20T01:03:30;18.17;;;7.40;;
69989;SDS011;57331;52.054;5.294;2022-11-20T01:06:04;17.15;;;7.18;;
69989;SDS011;57331;52.054;5.294;2022-11-20T01:08:32;20.10;;;7.30;;
69989;SDS011;57331;52.054;5.294;2022-11-20T01:11:01;15.77;;;6.82;;
69989;SDS011;57331;52.054;5.294;2022-11-20T01:13:30;18.97;;;7.30;;
69989;SDS011;57331;52.054;5.294;2022-11-20T01:16:11;18.33;;;8.38;;
69989;SDS011;57331;52.054;5.294;2022-11-20T01:18:41;17.27;;;6.97;;
69989;SDS011;57331;52.054;5.294;2022-11-20T01:21:09;18.08;;;7.65;;
69989;SDS011;57331;52.054;5.294;2022-11-20T01:23:37;18.70;;;8.17;;
69989;SDS011;57331;52.054;5.294;2022-11-20T01:26:12;18.17;;;8.38;;
69989;SDS011;57331;52.054;5.294;2022-11-20T01:28:40;18.02;;;7.60;;
69989;SDS011;57331;52.054;5.294;2022-11-20T01:34:09;20.10;;;7.13;;
69989;SDS011;57331;52.054;5.294;2022-11-20T01:36:36;16.65;;;7.25;;
69989;SDS011;57331;52.054;5.294;2022-11-20T01:39:05;18.40;;;7.45;;
69989;SDS011;57331;52.054;5.294;2022-11-20T01:41:36;17.33;;;6.60;;
69989;SDS011;57331;52.054;5.294;2022-11-20T01:44:39;16.07;;;6.43;;
69989;SDS011;57331;52.054;5.294;2022-11-20T01:47:09;17.10;;;8.10;;
69989;SDS011;57331;52.054;5.294;2022-11-20T01:49:40;19.10;;;8.18;;
69989;SDS011;57331;52.054;5.294;2022-11-20T01:52:23;17.00;;;7.65;;
69989;SDS011;57331;52.054;5.294;2022-11-20T01:54:52;18.97;;;7.77;;
69989;SDS011;57331;52.054;5.294;2022-11-20T01:57:21;17.35;;;7.28;;
69989;SDS011;57331;52.054;5.294;2022-11-20T01:59:52;18.08;;;6.75;;
69989;SDS011;57331;52.054;5.294;2022-11-20T02:02:21;18.60;;;7.28;;
69989;SDS011;57331;52.054;5.294;2022-11-20T02:04:49;16.63;;;7.83;;
69989;SDS011;57331;52.054;5.294;2022-11-20T02:07:18;15.93;;;7.15;;
69989;SDS011;57331;52.054;5.294;2022-11-20T02:09:47;15.25;;;6.82;;
69989;SDS011;57331;52.054;5.294;2022-11-20T02:12:14;20.27;;;7.68;;
69989;SDS011;57331;52.054;5.294;2022-11-20T02:15:00;16.53;;;7.03;;
69989;SDS011;57331;52.054;5.294;2022-11-20T02:17:27;16.02;;;5.78;;
69989;SDS011;57331;52.054;5.294;2022-11-20T02:19:55;19.05;;;7.50;;
69989;SDS011;57331;52.054;5.294;2022-11-20T02:22:28;17.38;;;6.85;;
69989;SDS011;57331;52.054;5.294;2022-11-20T02:24:58;18.13;;;7.47;;
69989;SDS011;57331;52.054;5.294;2022-11-20T02:27:27;16.88;;;6.85;;
69989;SDS011;57331;52.054;5.294;2022-11-20T02:30:03;16.50;;;6.93;;
69989;SDS011;57331;52.054;5.294;2022-11-20T02:32:31;15.90;;;6.75;;
69989;SDS011;57331;52.054;5.294;2022-11-20T02:37:46;13.40;;;6.00;;
69989;SDS011;57331;52.054;5.294;2022-11-20T02:40:14;20.38;;;7.00;;
69989;SDS011;57331;52.054;5.294;2022-11-20T02:42:40;14.73;;;6.57;;
69989;SDS011;57331;52.054;5.294;2022-11-20T02:45:08;15.40;;;6.23;;
69989;SDS011;57331;52.054;5.294;2022-11-20T02:47:35;20.20;;;8.02;;
69989;SDS011;57331;52.054;5.294;2022-11-20T02:50:03;14.88;;;6.13;;
69989;SDS011;57331;52.054;5.294;2022-11-20T02:52:31;16.73;;;6.78;;
69989;SDS011;57331;52.054;5.294;2022-11-20T02:54:58;17.70;;;7.77;;
69989;SDS011;57331;52.054;5.294;2022-11-20T02:57:25;20.98;;;7.55;;
69989;SDS011;57331;52.054;5.294;2022-11-20T02:59:52;16.17;;;6.93;;
69989;SDS011;57331;52.054;5.294;2022-11-20T03:02:20;17.73;;;7.05;;
69989;SDS011;57331;52.054;5.294;2022-11-20T03:04:47;16.30;;;7.47;;
69989;SDS011;57331;52.054;5.294;2022-11-20T03:07:14;18.17;;;6.65;;
69989;SDS011;57331;52.054;5.294;2022-11-20T03:09:41;24.80;;;7.32;;
69989;SDS011;57331;52.054;5.294;2022-11-20T03:12:08;17.60;;;6.72;;
69989;SDS011;57331;52.054;5.294;2022-11-20T03:14:35;17.67;;;8.02;;
69989;SDS011;57331;52.054;5.294;2022-11-20T03:17:03;15.60;;;6.82;;
69989;SDS011;57331;52.054;5.294;2022-11-20T03:19:30;23.05;;;7.75;;
69989;SDS011;57331;52.054;5.294;2022-11-20T03:21:57;17.47;;;7.67;;
69989;SDS011;57331;52.054;5.294;2022-11-20T03:24:24;17.05;;;7.28;;
69989;SDS011;57331;52.054;5.294;2022-11-20T03:26:52;21.65;;;7.30;;
69989;SDS011;57331;52.054;5.294;2022-11-20T03:29:19;17.92;;;7.57;;
69989;SDS011;57331;52.054;5.294;2022-11-20T03:31:46;16.93;;;6.70;;
69989;SDS011;57331;52.054;5.294;2022-11-20T03:34:13;17.73;;;7.05;;
69989;SDS011;57331;52.054;5.294;2022-11-20T03:36:41;18.35;;;7.47;;
69989;SDS011;57331;52.054;5.294;2022-11-20T03:39:09;18.48;;;6.63;;
69989;SDS011;57331;52.054;5.294;2022-11-20T03:41:37;21.50;;;7.95;;
69989;SDS011;57331;52.054;5.294;2022-11-20T03:44:05;19.60;;;7.30;;
69989;SDS011;57331;52.054;5.294;2022-11-20T03:46:33;13.85;;;5.90;;
69989;SDS011;57331;52.054;5.294;2022-11-20T03:49:01;18.83;;;6.83;;
69989;SDS011;57331;52.054;5.294;2022-11-20T03:51:29;19.95;;;6.45;;
69989;SDS011;57331;52.054;5.294;2022-11-20T03:53:58;17.70;;;6.78;;
69989;SDS011;57331;52.054;5.294;2022-11-20T03:56:27;17.50;;;6.90;;
69989;SDS011;57331;52.054;5.294;2022-11-20T03:58:54;17.58;;;7.38;;
69989;SDS011;57331;52.054;5.294;2022-11-20T04:01:23;12.82;;;5.93;;
69989;SDS011;57331;52.054;5.294;2022-11-20T04:03:54;16.00;;;6.15;;
69989;SDS011;57331;52.054;5.294;2022-11-20T04:06:23;16.57;;;6.80;;
69989;SDS011;57331;52.054;5.294;2022-11-20T04:08:50;16.33;;;6.30;;
69989;SDS011;57331;52.054;5.294;2022-11-20T04:11:29;14.65;;;6.38;;
69989;SDS011;57331;52.054;5.294;2022-11-20T04:13:57;15.35;;;6.90;;
69989;SDS011;57331;52.054;5.294;2022-11-20T04:16:25;19.00;;;7.00;;
69989;SDS011;57331;52.054;5.294;2022-11-20T04:18:55;16.70;;;7.13;;
69989;SDS011;57331;52.054;5.294;2022-11-20T04:21:22;12.77;;;5.72;;
69989;SDS011;57331;52.054;5.294;2022-11-20T04:23:50;16.37;;;6.53;;
69989;SDS011;57331;52.054;5.294;2022-11-20T04:26:19;13.88;;;6.00;;
69989;SDS011;57331;52.054;5.294;2022-11-20T04:28:46;17.08;;;7.13;;
69989;SDS011;57331;52.054;5.294;2022-11-20T04:31:15;14.18;;;5.75;;
69989;SDS011;57331;52.054;5.294;2022-11-20T04:33:42;15.87;;;6.70;;
69989;SDS011;57331;52.054;5.294;2022-11-20T04:36:11;19.08;;;7.32;;
69989;SDS011;57331;52.054;5.294;2022-11-20T04:38:38;16.65;;;6.45;;
69989;SDS011;57331;52.054;5.294;2022-11-20T04:41:06;14.87;;;6.17;;
69989;SDS011;57331;52.054;5.294;2022-11-20T04:43:34;13.77;;;5.60;;
69989;SDS011;57331;52.054;5.294;2022-11-20T04:46:01;16.80;;;6.90;;
69989;SDS011;57331;52.054;5.294;2022-11-20T04:48:28;16.63;;;6.32;;
69989;SDS011;57331;52.054;5.294;2022-11-20T04:50:55;19.00;;;7.23;;
69989;SDS011;57331;52.054;5.294;2022-11-20T04:53:23;16.02;;;6.80;;
69989;SDS011;57331;52.054;5.294;2022-11-20T04:55:50;17.10;;;7.25;;
69989;SDS011;57331;52.054;5.294;2022-11-20T04:58:17;18.30;;;7.18;;
69989;SDS011;57331;52.054;5.294;2022-11-20T05:00:44;15.00;;;6.15;;
69989;SDS011;57331;52.054;5.294;2022-11-20T05:03:12;16.90;;;6.50;;
69989;SDS011;57331;52.054;5.294;2022-11-20T05:05:39;14.15;;;6.28;;
69989;SDS011;57331;52.054;5.294;2022-11-20T05:08:06;15.67;;;6.53;;
69989;SDS011;57331;52.054;5.294;2022-11-20T05:10:33;19.40;;;6.97;;
69989;SDS011;57331;52.054;5.294;2022-11-20T05:13:01;14.07;;;5.95;;
69989;SDS011;57331;52.054;5.294;2022-11-20T05:15:28;16.17;;;6.35;;
69989;SDS011;57331;52.054;5.294;2022-11-20T05:17:56;18.42;;;7.28;;
69989;SDS011;57331;52.054;5.294;2022-11-20T05:20:23;16.25;;;5.78;;
69989;SDS011;57331;52.054;5.294;2022-11-20T05:22:51;12.55;;;5.78;;
69989;SDS011;57331;52.054;5.294;2022-11-20T05:25:17;16.13;;;6.83;;
69989;SDS011;57331;52.054;5.294;2022-11-20T05:27:45;14.25;;;5.38;;
69989;SDS011;57331;52.054;5.294;2022-11-20T05:30:14;20.75;;;7.05;;
69989;SDS011;57331;52.054;5.294;2022-11-20T05:32:41;21.60;;;7.32;;
69989;SDS011;57331;52.054;5.294;2022-11-20T05:35:08;18.48;;;6.32;;
69989;SDS011;57331;52.054;5.294;2022-11-20T05:37:35;16.80;;;7.22;;
69989;SDS011;57331;52.054;5.294;2022-11-20T05:40:02;17.15;;;7.70;;
69989;SDS011;57331;52.054;5.294;2022-11-20T05:42:30;21.70;;;7.27;;
69989;SDS011;57331;52.054;5.294;2022-11-20T05:44:58;19.52;;;6.50;;
69989;SDS011;57331;52.054;5.294;2022-11-20T05:47:26;18.02;;;7.20;;
69989;SDS011;57331;52.054;5.294;2022-11-20T05:49:53;14.63;;;6.03;;
69989;SDS011;57331;52.054;5.294;2022-11-20T05:52:20;13.63;;;6.20;;
69989;SDS011;57331;52.054;5.294;2022-11-20T05:54:48;15.57;;;5.90;;
69989;SDS011;57331;52.054;5.294;2022-11-20T05:57:15;21.58;;;7.35;;
69989;SDS011;57331;52.054;5.294;2022-11-20T05:59:43;13.13;;;6.10;;
69989;SDS011;57331;52.054;5.294;2022-11-20T06:02:10;15.63;;;7.45;;
69989;SDS011;57331;52.054;5.294;2022-11-20T06:04:38;16.45;;;6.80;;
69989;SDS011;57331;52.054;5.294;2022-11-20T06:07:05;14.97;;;6.03;;
69989;SDS011;57331;52.054;5.294;2022-11-20T06:09:33;16.00;;;6.38;;
69989;SDS011;57331;52.054;5.294;2022-11-20T06:12:00;19.05;;;6.75;;
69989;SDS011;57331;52.054;5.294;2022-11-20T06:14:27;16.77;;;6.38;;
69989;SDS011;57331;52.054;5.294;2022-11-20T06:16:54;19.05;;;7.88;;
69989;SDS011;57331;52.054;5.294;2022-11-20T06:19:22;21.77;;;7.15;;
69989;SDS011;57331;52.054;5.294;2022-11-20T06:21:49;12.65;;;5.68;;
69989;SDS011;57331;52.054;5.294;2022-11-20T06:24:17;14.27;;;6.10;;
69989;SDS011;57331;52.054;5.294;2022-11-20T06:26:44;16.65;;;5.70;;
69989;SDS011;57331;52.054;5.294;2022-11-20T06:29:11;15.15;;;7.60;;
69989;SDS011;57331;52.054;5.294;2022-11-20T06:31:38;14.90;;;6.10;;
69989;SDS011;57331;52.054;5.294;2022-11-20T06:34:06;21.05;;;5.63;;
69989;SDS011;57331;52.054;5.294;2022-11-20T06:36:33;20.98;;;7.05;;
69989;SDS011;57331;52.054;5.294;2022-11-20T06:39:00;19.30;;;6.65;;
69989;SDS011;57331;52.054;5.294;2022-11-20T06:41:27;16.63;;;6.80;;
69989;SDS011;57331;52.054;5.294;2022-11-20T06:43:55;16.73;;;6.30;;
69989;SDS011;57331;52.054;5.294;2022-11-20T06:46:22;17.13;;;6.28;;
69989;SDS011;57331;52.054;5.294;2022-11-20T06:48:49;15.55;;;6.72;;
69989;SDS011;57331;52.054;5.294;2022-11-20T06:51:17;15.98;;;6.32;;
69989;SDS011;57331;52.054;5.294;2022-11-20T06:53:44;18.10;;;7.18;;
69989;SDS011;57331;52.054;5.294;2022-11-20T06:56:12;22.13;;;7.53;;
69989;SDS011;57331;52.054;5.294;2022-11-20T06:58:39;16.13;;;6.73;;
69989;SDS011;57331;52.054;5.294;2022-11-20T07:01:08;14.80;;;6.88;;
69989;SDS011;57331;52.054;5.294;2022-11-20T07:03:36;19.50;;;6.00;;
69989;SDS011;57331;52.054;5.294;2022-11-20T07:06:03;14.07;;;5.72;;
69989;SDS011;57331;52.054;5.294;2022-11-20T07:08:31;18.77;;;6.67;;
69989;SDS011;57331;52.054;5.294;2022-11-20T07:10:59;15.88;;;6.93;;
69989;SDS011;57331;52.054;5.294;2022-11-20T07:13:27;15.98;;;6.97;;
69989;SDS011;57331;52.054;5.294;2022-11-20T07:15:55;16.95;;;6.05;;
69989;SDS011;57331;52.054;5.294;2022-11-20T07:18:25;23.23;;;8.13;;
69989;SDS011;57331;52.054;5.294;2022-11-20T07:20:52;14.82;;;5.45;;
69989;SDS011;57331;52.054;5.294;2022-11-20T07:23:19;16.13;;;6.50;;
69989;SDS011;57331;52.054;5.294;2022-11-20T07:25:46;11.07;;;4.97;;
69989;SDS011;57331;52.054;5.294;2022-11-20T07:28:14;18.20;;;7.47;;
69989;SDS011;57331;52.054;5.294;2022-11-20T07:30:41;17.33;;;7.50;;
69989;SDS011;57331;52.054;5.294;2022-11-20T07:33:08;16.67;;;7.03;;
69989;SDS011;57331;52.054;5.294;2022-11-20T07:35:36;13.07;;;5.30;;
69989;SDS011;57331;52.054;5.294;2022-11-20T07:38:02;15.73;;;6.57;;
69989;SDS011;57331;52.054;5.294;2022-11-20T07:40:30;19.33;;;8.40;;
69989;SDS011;57331;52.054;5.294;2022-11-20T07:42:57;15.53;;;6.90;;
69989;SDS011;57331;52.054;5.294;2022-11-20T07:45:24;17.65;;;6.05;;
69989;SDS011;57331;52.054;5.294;2022-11-20T07:47:52;16.80;;;7.55;;
69989;SDS011;57331;52.054;5.294;2022-11-20T07:50:19;16.30;;;7.30;;
69989;SDS011;57331;52.054;5.294;2022-11-20T07:52:46;18.05;;;8.18;;
69989;SDS011;57331;52.054;5.294;2022-11-20T07:55:14;18.90;;;6.97;;
69989;SDS011;57331;52.054;5.294;2022-11-20T07:57:41;16.67;;;7.20;;
69989;SDS011;57331;52.054;5.294;2022-11-20T08:00:08;16.93;;;7.77;;
69989;SDS011;57331;52.054;5.294;2022-11-20T08:02:42;16.48;;;7.70;;
69989;SDS011;57331;52.054;5.294;2022-11-20T08:05:10;19.02;;;8.57;;
69989;SDS011;57331;52.054;5.294;2022-11-20T08:07:38;21.23;;;9.57;;
69989;SDS011;57331;52.054;5.294;2022-11-20T08:10:06;19.43;;;8.83;;
69989;SDS011;57331;52.054;5.294;2022-11-20T08:12:34;22.30;;;8.95;;
69989;SDS011;57331;52.054;5.294;2022-11-20T08:15:20;18.55;;;8.90;;
69989;SDS011;57331;52.054;5.294;2022-11-20T08:17:47;24.40;;;9.68;;
69989;SDS011;57331;52.054;5.294;2022-11-20T08:20:34;20.03;;;8.93;;
69989;SDS011;57331;52.054;5.294;2022-11-20T08:23:03;19.08;;;8.75;;
69989;SDS011;57331;52.054;5.294;2022-11-20T08:25:32;22.70;;;9.27;;
69989;SDS011;57331;52.054;5.294;2022-11-20T08:28:00;27.20;;;10.73;;
69989;SDS011;57331;52.054;5.294;2022-11-20T08:30:43;21.95;;;9.43;;
69989;SDS011;57331;52.054;5.294;2022-11-20T08:33:12;19.67;;;9.15;;
69989;SDS011;57331;52.054;5.294;2022-11-20T08:35:39;25.67;;;10.50;;
69989;SDS011;57331;52.054;5.294;2022-11-20T08:38:08;24.77;;;9.65;;
69989;SDS011;57331;52.054;5.294;2022-11-20T08:40:35;21.70;;;10.45;;
69989;SDS011;57331;52.054;5.294;2022-11-20T08:43:03;23.90;;;10.43;;
69989;SDS011;57331;52.054;5.294;2022-11-20T08:45:30;20.98;;;10.38;;
69989;SDS011;57331;52.054;5.294;2022-11-20T08:48:03;25.90;;;11.43;;
69989;SDS011;57331;52.054;5.294;2022-11-20T08:50:31;24.85;;;10.80;;
69989;SDS011;57331;52.054;5.294;2022-11-20T08:53:05;22.58;;;9.93;;
69989;SDS011;57331;52.054;5.294;2022-11-20T08:55:32;21.73;;;9.10;;
69989;SDS011;57331;52.054;5.294;2022-11-20T08:58:05;22.17;;;10.70;;
69989;SDS011;57331;52.054;5.294;2022-11-20T09:00:33;22.15;;;9.63;;
69989;SDS011;57331;52.054;5.294;2022-11-20T09:03:01;25.35;;;11.52;;
69989;SDS011;57331;52.054;5.294;2022-11-20T09:05:28;27.17;;;11.80;;
69989;SDS011;57331;52.054;5.294;2022-11-20T09:07:56;24.50;;;10.07;;
69989;SDS011;57331;52.054;5.294;2022-11-20T09:10:23;21.02;;;10.02;;
69989;SDS011;57331;52.054;5.294;2022-11-20T09:12:51;26.75;;;11.32;;
69989;SDS011;57331;52.054;5.294;2022-11-20T09:15:19;23.92;;;10.93;;
69989;SDS011;57331;52.054;5.294;2022-11-20T09:17:56;26.58;;;11.55;;
69989;SDS011;57331;52.054;5.294;2022-11-20T09:20:25;26.43;;;11.03;;
69989;SDS011;57331;52.054;5.294;2022-11-20T09:22:52;22.92;;;10.65;;
69989;SDS011;57331;52.054;5.294;2022-11-20T09:25:20;26.02;;;11.15;;
69989;SDS011;57331;52.054;5.294;2022-11-20T09:27:47;20.52;;;9.15;;
69989;SDS011;57331;52.054;5.294;2022-11-20T09:30:15;25.67;;;11.00;;
69989;SDS011;57331;52.054;5.294;2022-11-20T09:32:42;21.77;;;10.33;;
69989;SDS011;57331;52.054;5.294;2022-11-20T09:35:10;23.20;;;10.65;;
69989;SDS011;57331;52.054;5.294;2022-11-20T09:37:37;26.50;;;11.10;;
69989;SDS011;57331;52.054;5.294;2022-11-20T09:40:05;30.30;;;12.80;;
69989;SDS011;57331;52.054;5.294;2022-11-20T09:42:38;25.55;;;12.55;;
69989;SDS011;57331;52.054;5.294;2022-11-20T09:45:20;21.37;;;10.07;;
69989;SDS011;57331;52.054;5.294;2022-11-20T09:55:45;25.25;;;11.35;;
69989;SDS011;57331;52.054;5.294;2022-11-20T09:58:15;24.37;;;10.97;;
69989;SDS011;57331;52.054;5.294;2022-11-20T10:00:56;20.42;;;8.13;;
69989;SDS011;57331;52.054;5.294;2022-11-20T10:03:54;21.70;;;8.60;;
69989;SDS011;57331;52.054;5.294;2022-11-20T10:06:29;26.00;;;12.05;;
69989;SDS011;57331;52.054;5.294;2022-11-20T10:11:35;18.33;;;7.90;;
69989;SDS011;57331;52.054;5.294;2022-11-20T10:14:29;25.00;;;11.32;;
69989;SDS011;57331;52.054;5.294;2022-11-20T10:31:31;32.92;;;13.45;;
69989;SDS011;57331;52.054;5.294;2022-11-20T10:34:05;27.20;;;11.70;;
69989;SDS011;57331;52.054;5.294;2022-11-20T10:36:55;27.98;;;9.70;;
69989;SDS011;57331;52.054;5.294;2022-11-20T10:41:56;34.53;;;16.50;;
69989;SDS011;57331;52.054;5.294;2022-11-20T10:44:27;46.92;;;23.40;;
69989;SDS011;57331;52.054;5.294;2022-11-20T10:47:21;47.97;;;22.80;;
69989;SDS011;57331;52.054;5.294;2022-11-20T10:49:50;39.03;;;16.25;;
69989;SDS011;57331;52.054;5.294;2022-11-20T10:52:28;29.23;;;14.00;;
69989;SDS011;57331;52.054;5.294;2022-11-20T10:55:16;33.03;;;14.10;;
69989;SDS011;57331;52.054;5.294;2022-11-20T10:58:10;39.35;;;21.58;;
69989;SDS011;57331;52.054;5.294;2022-11-20T11:00:37;43.97;;;20.55;;
69989;SDS011;57331;52.054;5.294;2022-11-20T11:03:22;32.90;;;13.80;;
69989;SDS011;57331;52.054;5.294;2022-11-20T11:05:54;32.70;;;14.60;;
69989;SDS011;57331;52.054;5.294;2022-11-20T11:08:32;30.35;;;14.43;;
69989;SDS011;57331;52.054;5.294;2022-11-20T11:11:07;26.40;;;11.98;;
69989;SDS011;57331;52.054;5.294;2022-11-20T11:14:06;32.10;;;13.98;;
69989;SDS011;57331;52.054;5.294;2022-11-20T11:16:34;31.88;;;13.43;;
69989;SDS011;57331;52.054;5.294;2022-11-20T11:19:05;30.27;;;12.70;;
69989;SDS011;57331;52.054;5.294;2022-11-20T11:21:37;37.67;;;14.70;;
69989;SDS011;57331;52.054;5.294;2022-11-20T11:24:15;37.08;;;13.98;;
69989;SDS011;57331;52.054;5.294;2022-11-20T11:27:12;31.00;;;13.93;;
69989;SDS011;57331;52.054;5.294;2022-11-20T11:29:43;30.50;;;15.10;;
69989;SDS011;57331;52.054;5.294;2022-11-20T11:32:12;27.03;;;12.03;;
69989;SDS011;57331;52.054;5.294;2022-11-20T11:34:41;34.35;;;15.18;;
69989;SDS011;57331;52.054;5.294;2022-11-20T11:37:18;37.10;;;15.52;;
69989;SDS011;57331;52.054;5.294;2022-11-20T11:39:50;34.03;;;14.43;;
69989;SDS011;57331;52.054;5.294;2022-11-20T11:42:43;38.15;;;14.35;;
69989;SDS011;57331;52.054;5.294;2022-11-20T11:45:16;25.47;;;11.93;;
69989;SDS011;57331;52.054;5.294;2022-11-20T12:00:51;39.58;;;16.63;;
69989;SDS011;57331;52.054;5.294;2022-11-20T12:03:27;73.30;;;28.30;;
69989;SDS011;57331;52.054;5.294;2022-11-20T12:06:01;50.60;;;24.48;;
69989;SDS011;57331;52.054;5.294;2022-11-20T12:08:50;37.80;;;17.35;;
69989;SDS011;57331;52.054;5.294;2022-11-20T12:14:17;50.00;;;19.52;;
69989;SDS011;57331;52.054;5.294;2022-11-20T12:16:51;51.72;;;21.42;;
69989;SDS011;57331;52.054;5.294;2022-11-20T12:19:19;42.85;;;15.65;;
69989;SDS011;57331;52.054;5.294;2022-11-20T12:24:36;41.00;;;18.60;;
69989;SDS011;57331;52.054;5.294;2022-11-20T12:38:07;59.00;;;24.60;;
69989;SDS011;57331;52.054;5.294;2022-11-20T12:44:16;60.33;;;25.95;;
69989;SDS011;57331;52.054;5.294;2022-11-20T12:52:24;54.77;;;23.63;;
69989;SDS011;57331;52.054;5.294;2022-11-20T12:55:04;52.95;;;24.95;;
69989;SDS011;57331;52.054;5.294;2022-11-20T13:00:30;157.20;;;55.05;;
69989;SDS011;57331;52.054;5.294;2022-11-20T13:08:29;49.53;;;21.15;;
69989;SDS011;57331;52.054;5.294;2022-11-20T13:17:05;44.00;;;19.45;;
69989;SDS011;57331;52.054;5.294;2022-11-20T13:19:40;49.73;;;21.03;;
69989;SDS011;57331;52.054;5.294;2022-11-20T13:22:08;34.17;;;15.23;;
69989;SDS011;57331;52.054;5.294;2022-11-20T13:24:35;44.22;;;19.88;;
69989;SDS011;57331;52.054;5.294;2022-11-20T13:29:30;41.10;;;17.83;;
69989;SDS011;57331;52.054;5.294;2022-11-20T13:34:51;35.55;;;15.73;;
69989;SDS011;57331;52.054;5.294;2022-11-20T13:37:28;42.15;;;17.92;;
69989;SDS011;57331;52.054;5.294;2022-11-20T13:42:44;48.10;;;20.52;;
69989;SDS011;57331;52.054;5.294;2022-11-20T13:45:22;50.13;;;21.83;;
69989;SDS011;57331;52.054;5.294;2022-11-20T13:47:51;41.10;;;16.98;;
69989;SDS011;57331;52.054;5.294;2022-11-20T13:50:18;27.52;;;12.52;;
69989;SDS011;57331;52.054;5.294;2022-11-20T14:01:29;54.15;;;18.80;;
69989;SDS011;57331;52.054;5.294;2022-11-20T14:04:06;52.08;;;21.10;;
69989;SDS011;57331;52.054;5.294;2022-11-20T14:06:42;45.85;;;18.15;;
69989;SDS011;57331;52.054;5.294;2022-11-20T14:09:11;42.25;;;18.25;;
69989;SDS011;57331;52.054;5.294;2022-11-20T14:11:45;52.07;;;19.10;;
69989;SDS011;57331;52.054;5.294;2022-11-20T14:14:14;35.20;;;14.85;;
69989;SDS011;57331;52.054;5.294;2022-11-20T14:16:47;45.53;;;17.38;;
69989;SDS011;57331;52.054;5.294;2022-11-20T14:19:25;55.42;;;19.15;;
69989;SDS011;57331;52.054;5.294;2022-11-20T14:22:06;50.80;;;20.25;;
69989;SDS011;57331;52.054;5.294;2022-11-20T14:24:40;52.07;;;20.90;;
69989;SDS011;57331;52.054;5.294;2022-11-20T14:27:14;86.55;;;42.80;;
69989;SDS011;57331;52.054;5.294;2022-11-20T14:29:44;73.72;;;37.60;;
69989;SDS011;57331;52.054;5.294;2022-11-20T14:32:17;60.88;;;28.65;;
69989;SDS011;57331;52.054;5.294;2022-11-20T14:34:47;51.85;;;21.85;;
69989;SDS011;57331;52.054;5.294;2022-11-20T14:37:23;64.43;;;23.27;;
69989;SDS011;57331;52.054;5.294;2022-11-20T14:39:53;62.75;;;22.90;;
69989;SDS011;57331;52.054;5.294;2022-11-20T14:42:23;60.20;;;22.58;;
69989;SDS011;57331;52.054;5.294;2022-11-20T14:44:57;49.38;;;20.23;;
69989;SDS011;57331;52.054;5.294;2022-11-20T14:47:26;74.15;;;34.42;;
69989;SDS011;57331;52.054;5.294;2022-11-20T14:49:56;75.13;;;35.67;;
69989;SDS011;57331;52.054;5.294;2022-11-20T14:52:25;64.45;;;27.70;;
69989;SDS011;57331;52.054;5.294;2022-11-20T14:54:54;53.50;;;20.98;;
69989;SDS011;57331;52.054;5.294;2022-11-20T15:02:46;47.57;;;21.33;;
69989;SDS011;57331;52.054;5.294;2022-11-20T15:05:15;44.53;;;19.88;;
69989;SDS011;57331;52.054;5.294;2022-11-20T15:07:45;60.03;;;22.08;;
69989;SDS011;57331;52.054;5.294;2022-11-20T15:12:51;58.15;;;23.90;;
69989;SDS011;57331;52.054;5.294;2022-11-20T15:15:30;66.67;;;27.57;;
69989;SDS011;57331;52.054;5.294;2022-11-20T15:21:00;44.83;;;21.02;;
69989;SDS011;57331;52.054;5.294;2022-11-20T15:23:29;45.80;;;18.25;;
69989;SDS011;57331;52.054;5.294;2022-11-20T15:25:56;46.70;;;19.38;;
69989;SDS011;57331;52.054;5.294;2022-11-20T15:28:29;53.47;;;21.60;;
69989;SDS011;57331;52.054;5.294;2022-11-20T15:30:56;51.13;;;20.58;;
69989;SDS011;57331;52.054;5.294;2022-11-20T15:33:23;37.80;;;16.35;;
69989;SDS011;57331;52.054;5.294;2022-11-20T15:35:50;46.55;;;19.85;;
69989;SDS011;57331;52.054;5.294;2022-11-20T15:38:17;46.10;;;19.67;;
69989;SDS011;57331;52.054;5.294;2022-11-20T15:40:45;39.23;;;17.47;;
69989;SDS011;57331;52.054;5.294;2022-11-20T15:43:12;42.35;;;18.02;;
69989;SDS011;57331;52.054;5.294;2022-11-20T15:45:43;45.10;;;19.15;;
69989;SDS011;57331;52.054;5.294;2022-11-20T15:48:13;46.75;;;18.08;;
69989;SDS011;57331;52.054;5.294;2022-11-20T15:50:46;38.97;;;16.08;;
69989;SDS011;57331;52.054;5.294;2022-11-20T15:53:16;38.17;;;16.30;;
69989;SDS011;57331;52.054;5.294;2022-11-20T15:55:44;40.70;;;16.88;;
69989;SDS011;57331;52.054;5.294;2022-11-20T15:58:11;39.80;;;18.52;;
69989;SDS011;57331;52.054;5.294;2022-11-20T16:00:38;37.72;;;15.52;;
69989;SDS011;57331;52.054;5.294;2022-11-20T16:03:08;48.58;;;19.30;;
69989;SDS011;57331;52.054;5.294;2022-11-20T16:05:37;38.67;;;16.73;;
69989;SDS011;57331;52.054;5.294;2022-11-20T16:08:04;41.63;;;17.27;;
69989;SDS011;57331;52.054;5.294;2022-11-20T16:10:37;45.85;;;16.75;;
69989;SDS011;57331;52.054;5.294;2022-11-20T16:13:04;41.03;;;17.30;;
69989;SDS011;57331;52.054;5.294;2022-11-20T16:15:57;38.72;;;16.80;;
69989;SDS011;57331;52.054;5.294;2022-11-20T16:18:25;43.47;;;18.60;;
69989;SDS011;57331;52.054;5.294;2022-11-20T16:20:53;39.10;;;16.08;;
69989;SDS011;57331;52.054;5.294;2022-11-20T16:23:20;45.45;;;17.23;;
69989;SDS011;57331;52.054;5.294;2022-11-20T16:25:48;37.50;;;15.20;;
69989;SDS011;57331;52.054;5.294;2022-11-20T16:28:16;43.10;;;16.02;;
69989;SDS011;57331;52.054;5.294;2022-11-20T16:30:44;42.53;;;17.50;;
69989;SDS011;57331;52.054;5.294;2022-11-20T16:33:13;38.75;;;18.10;;
69989;SDS011;57331;52.054;5.294;2022-11-20T16:35:41;39.80;;;16.10;;
69989;SDS011;57331;52.054;5.294;2022-11-20T16:38:09;44.03;;;18.02;;
69989;SDS011;57331;52.054;5.294;2022-11-20T16:40:36;46.67;;;17.70;;